37 Rocks — ZM3003 — position and weather

sailwx.info

Track history (hours):
 
Tides and Currents Weather Stations Pressure Air Temp Water Temp Dewpoint Dewpoint Depression Visibility Wind Speed Wind Dir Waves Ship Positions

37 Rocks

Last reported at 2014-Sep-14 16:03 UTC. Time now 2014-Sep-15 04:09 UTC.
Position N 37°27' E 024°57'.

Length 17 m.

Type: Sailing vessel. MMSI: 512003230.

Date/timePositionNaut miles runAvg speedWind from/ knotsBaromVisibWave heightAir tempDewpointWater temp
2014-Sep-14 16:03N 37°27' E 024°57'0 0.0
2014-Sep-14 15:33N 37°27' E 024°57'4 4.3
2014-Sep-14 14:33N 37°27' E 025°02'6 5.9
2014-Sep-14 13:33N 37°27' E 025°10'6 5.7
2014-Sep-14 12:33N 37°25' E 025°16'3 3.5
2014-Sep-14 11:33N 37°24' E 025°20'1 0.0
2014-Sep-13 17:16N 37°25' E 025°21'0 0.0
2014-Sep-13 16:28N 37°25' E 025°21'0 0.0
2014-Sep-13 15:28N 37°25' E 025°21'0 0.0
2014-Sep-13 14:28N 37°25' E 025°21'0 0.0
2014-Sep-13 13:31N 37°25' E 025°21'0 0.0
2014-Sep-13 12:28N 37°24' E 025°21'0 0.0
2014-Sep-12 14:09N 37°25' E 025°21'4 6.0
2014-Sep-12 13:33N 37°22' E 025°19'7 7.2
2014-Sep-12 12:33N 37°15' E 025°14'7 7.0
2014-Sep-12 11:33N 37°09' E 025°10'6 2.0
2014-Sep-12 08:32N 37°04' E 025°06'2 0.1
2014-Sep-11 14:17N 37°02' E 025°05'4 5.8
2014-Sep-11 13:33N 36°58' E 025°05'5 5.4
2014-Sep-11 12:33N 36°55' E 024°59'6 6.0
2014-Sep-11 11:33N 36°53' E 024°52'5 5.2
2014-Sep-11 10:33N 36°50' E 024°47'6 5.7
2014-Sep-11 09:31N 36°45' E 024°42'7 6.9
2014-Sep-11 08:34N 36°42' E 024°35'7 7.1
2014-Sep-11 07:34N 36°39' E 024°27'5 4.5
2014-Sep-11 06:24N 36°39' E 024°20'3 0.7
2014-Sep-11 02:32N 36°38' E 024°18'  
Track history (hours):
 
Tides and Currents Weather Stations Pressure Air Temp Water Temp Dewpoint Dewpoint Depression Visibility Wind Speed Wind Dir Waves Ship Positions

37 Rocks

Last reported at 2014-Sep-14 16:03 UTC. Time now 2014-Sep-15 04:09 UTC.
Position N 37°27' E 024°57'.

Length 17 m.

Type: Sailing vessel. MMSI: 512003230.

Date/timePositionNaut miles runAvg speedWind from/ knotsBaromVisibWave heightAir tempDewpointWater temp
2014-Sep-14 16:03N 37°27' E 024°57'0 0.0
2014-Sep-14 15:33N 37°27' E 024°57'4 4.3
2014-Sep-14 14:33N 37°27' E 025°02'6 5.9
2014-Sep-14 13:33N 37°27' E 025°10'6 5.7
2014-Sep-14 12:33N 37°25' E 025°16'3 3.5
2014-Sep-14 11:33N 37°24' E 025°20'1 0.0
2014-Sep-13 17:16N 37°25' E 025°21'0 0.0
2014-Sep-13 16:28N 37°25' E 025°21'0 0.0
2014-Sep-13 15:28N 37°25' E 025°21'0 0.0
2014-Sep-13 14:28N 37°25' E 025°21'0 0.0
2014-Sep-13 13:31N 37°25' E 025°21'0 0.0
2014-Sep-13 12:28N 37°24' E 025°21'0 0.0
2014-Sep-12 14:09N 37°25' E 025°21'4 6.0
2014-Sep-12 13:33N 37°22' E 025°19'7 7.2
2014-Sep-12 12:33N 37°15' E 025°14'7 7.0
2014-Sep-12 11:33N 37°09' E 025°10'6 2.0
2014-Sep-12 08:32N 37°04' E 025°06'2 0.1
2014-Sep-11 14:17N 37°02' E 025°05'4 5.8
2014-Sep-11 13:33N 36°58' E 025°05'5 5.4
2014-Sep-11 12:33N 36°55' E 024°59'6 6.0
2014-Sep-11 11:33N 36°53' E 024°52'5 5.2
2014-Sep-11 10:33N 36°50' E 024°47'6 5.7
2014-Sep-11 09:31N 36°45' E 024°42'7 6.9
2014-Sep-11 08:34N 36°42' E 024°35'7 7.1
2014-Sep-11 07:34N 36°39' E 024°27'5 4.5
2014-Sep-11 06:24N 36°39' E 024°20'3 0.7
2014-Sep-11 02:32N 36°38' E 024°18'  

Dump ship's entire track history